createdAt,value
2019-04-10T08:15:06.929Z,39
2019-04-10T08:20:09.981Z,38
2019-04-10T08:25:11.310Z,38
2019-04-10T08:30:13.988Z,35
2019-04-10T08:35:17.346Z,35
2019-04-10T08:40:19.072Z,33
2019-04-10T08:45:21.154Z,36
2019-04-10T08:50:23.589Z,32
2019-04-10T08:55:26.162Z,30
2019-04-10T09:00:28.913Z,34
2019-04-10T09:05:31.102Z,31
2019-04-10T09:10:34.360Z,30
2019-04-10T09:15:36.096Z,29
2019-04-10T09:20:38.483Z,30
2019-04-10T09:25:41.554Z,24
2019-04-10T09:30:43.023Z,24
2019-04-10T09:35:45.454Z,25
2019-04-10T09:40:48.808Z,22
2019-04-10T09:45:51.457Z,22
2019-04-10T09:55:55.321Z,21
2019-04-10T10:00:58.463Z,24
2019-04-10T10:06:00.728Z,21
2019-04-10T10:11:02.537Z,20
2019-04-10T10:16:06.376Z,19
2019-04-10T10:21:08.215Z,24
2019-04-10T10:26:10.020Z,25
2019-04-10T10:31:12.279Z,21
2019-04-10T10:36:15.811Z,24
2019-04-10T10:41:18.096Z,18
2019-04-10T10:46:19.924Z,20
2019-04-10T10:51:22.542Z,19
2019-04-10T10:56:24.654Z,18
2019-04-10T11:01:27.522Z,18
2019-04-10T11:11:32.553Z,19
2019-04-10T11:16:34.268Z,16
2019-04-10T11:21:36.773Z,15
2019-04-10T11:26:39.969Z,17
2019-04-10T11:31:41.815Z,20
2019-04-10T11:36:46.049Z,16
2019-04-10T11:41:49.035Z,16
2019-04-10T11:46:49.376Z,17
2019-04-10T11:51:53.445Z,14
2019-04-10T11:56:57.923Z,19
2019-04-10T12:02:00.611Z,16
2019-04-10T12:07:01.334Z,14
2019-04-10T12:12:01.520Z,16
2019-04-10T12:17:03.737Z,13
2019-04-10T12:22:06.091Z,13
2019-04-10T12:27:09.156Z,13
2019-04-10T12:32:10.833Z,13
2019-04-10T12:37:13.352Z,12
2019-04-10T12:42:16.474Z,12
2019-04-10T12:47:18.173Z,13
2019-04-10T12:52:20.706Z,14
2019-04-10T12:57:23.180Z,12
2019-04-10T13:02:26.031Z,12
2019-04-10T13:07:28.086Z,11
2019-04-10T13:12:31.268Z,13
2019-04-10T13:17:33.159Z,12
2019-04-10T13:22:35.962Z,13
2019-04-10T13:27:37.703Z,12
2019-04-10T13:32:40.357Z,13
2019-04-10T13:37:43.447Z,13
2019-04-10T13:42:45.412Z,13
2019-04-10T13:47:48.465Z,15
2019-04-10T13:52:52.194Z,13
2019-04-10T13:57:52.982Z,12
2019-04-10T14:02:54.768Z,15
2019-04-10T14:07:57.697Z,13
2019-04-10T14:12:59.772Z,16
2019-04-10T14:18:02.131Z,11
2019-04-10T14:23:04.591Z,13
2019-04-10T14:28:07.042Z,15
2019-04-10T14:33:10.492Z,15
2019-04-10T14:38:12.022Z,12
2019-04-10T14:43:14.653Z,14
2019-04-10T14:48:18.172Z,12
2019-04-10T14:53:19.345Z,12
2019-04-10T14:58:27.374Z,12
2019-04-10T15:03:24.356Z,11
2019-04-10T15:08:27.869Z,18
2019-04-10T15:13:29.658Z,11
2019-04-10T15:18:31.382Z,11
2019-04-10T15:23:33.832Z,13
2019-04-10T15:28:36.310Z,12
2019-04-10T15:33:39.390Z,10
2019-04-10T15:38:42.140Z,10
2019-04-10T15:43:43.619Z,11
2019-04-10T15:53:49.389Z,10
2019-04-10T15:58:52.112Z,11
2019-04-10T16:03:54.421Z,9
2019-04-10T16:08:56.710Z,13
2019-04-10T16:13:59.027Z,9
2019-04-10T16:19:02.103Z,10
2019-04-10T16:24:03.186Z,10
2019-04-10T16:29:05.567Z,10
2019-04-10T16:34:08.960Z,10
2019-04-10T16:39:11.367Z,11
2019-04-10T16:44:13.079Z,11
2019-04-10T16:49:15.483Z,13
2019-04-10T16:54:20.027Z,14
2019-04-10T16:59:21.380Z,15
2019-04-10T17:04:23.052Z,14
2019-04-10T17:09:25.136Z,17
2019-04-10T17:14:27.558Z,12
2019-04-10T17:19:30.806Z,14
2019-04-10T17:24:33.448Z,12
2019-04-10T17:29:35.193Z,14
2019-04-10T17:34:37.321Z,10
2019-04-10T17:39:39.807Z,12
2019-04-10T17:44:42.280Z,35
2019-04-10T17:49:44.648Z,11
2019-04-10T17:54:47.154Z,11
2019-04-10T17:59:50.965Z,17
2019-04-10T18:09:54.418Z,15
2019-04-10T18:14:57.600Z,17
2019-04-10T18:19:59.245Z,17
2019-04-10T18:25:01.803Z,13
2019-04-10T18:30:04.483Z,18
2019-04-10T18:35:06.796Z,14
2019-04-10T18:40:09.029Z,14
2019-04-10T18:45:11.609Z,13
2019-04-10T18:55:16.467Z,16
2019-04-10T19:00:19.118Z,12
2019-04-10T19:05:21.436Z,16
2019-04-10T19:10:23.765Z,19
2019-04-10T19:15:26.209Z,19
2019-04-10T19:20:29.077Z,25
2019-04-10T19:25:31.016Z,17
2019-04-10T19:30:33.900Z,14
2019-04-10T19:35:37.166Z,17
2019-04-10T19:40:38.762Z,20
2019-04-10T19:45:41.857Z,25
2019-04-10T19:50:43.679Z,25
2019-04-10T19:55:46.476Z,25
